Time;durP1;ratioP1;P1;durP2;ratioP2;P2;SDS_P1;SDS_P2;PMS_P1;PMS_P2;Temp;Humidity;BMP_temperature;BMP_pressure;BME280_temperature;BME280_humidity;BME280_pressure;Samples;Min_cycle;Max_cycle;Signal;HPM_P1;HPM_P2
2022/12/03 00:01:56;;;;;;;3.92;1.83;;;3.00;87.50;;;;;;5074156;28;20113;-78
2022/12/03 00:04:22;;;;;;;4.50;2.08;;;3.00;87.50;;;;;;5091947;28;20051;-76
2022/12/03 00:06:47;;;;;;;3.05;1.50;;;3.00;87.50;;;;;;5092298;28;20048;-77
2022/12/03 00:09:13;;;;;;;4.38;1.90;;;3.00;87.50;;;;;;5092247;28;20417;-77
2022/12/03 00:11:39;;;;;;;3.00;1.60;;;3.00;87.50;;;;;;5073907;28;20036;-77
2022/12/03 00:14:04;;;;;;;3.95;1.65;;;3.00;87.50;;;;;;5073796;28;20044;-76
2022/12/03 00:16:30;;;;;;;4.28;1.95;;;3.00;87.50;;;;;;5092075;28;20058;-78
2022/12/03 00:18:55;;;;;;;4.07;1.80;;;2.90;87.40;;;;;;5092465;28;20500;-77
2022/12/03 00:21:21;;;;;;;4.32;1.83;;;3.00;87.50;;;;;;5073814;28;20040;-77
2022/12/03 00:23:47;;;;;;;4.03;1.90;;;3.00;87.50;;;;;;5074386;28;20043;-77
2022/12/03 00:26:12;;;;;;;4.68;2.08;;;3.00;87.40;;;;;;5057037;28;20135;-78
2022/12/03 00:28:38;;;;;;;5.47;2.40;;;3.00;87.50;;;;;;5073661;28;20044;-77
2022/12/03 00:31:03;;;;;;;4.82;2.30;;;3.00;87.50;;;;;;5095692;28;20067;-76
2022/12/03 00:33:30;;;;;;;3.53;1.42;;;2.90;87.40;;;;;;5077887;28;20036;-77
2022/12/03 00:35:55;;;;;;;4.75;2.20;;;2.90;87.50;;;;;;5076940;28;20485;-78
2022/12/03 00:38:21;;;;;;;4.53;2.15;;;3.00;87.50;;;;;;5095091;28;20109;-77
2022/12/03 00:40:47;;;;;;;3.88;1.88;;;3.00;87.40;;;;;;5095113;28;20089;-77
2022/12/03 00:43:13;;;;;;;4.53;2.05;;;3.00;87.40;;;;;;5095147;28;20051;-77
2022/12/03 00:45:38;;;;;;;3.70;1.95;;;3.00;87.40;;;;;;5076999;28;20040;-77
2022/12/03 00:48:04;;;;;;;5.03;2.03;;;3.00;87.40;;;;;;5094904;28;20078;-77
2022/12/03 00:50:29;;;;;;;4.05;1.90;;;3.00;87.50;;;;;;5094938;28;20047;-77
2022/12/03 00:52:55;;;;;;;4.72;2.05;;;3.00;87.50;;;;;;5094749;28;20036;-77
2022/12/03 00:55:21;;;;;;;3.92;2.03;;;3.00;87.40;;;;;;5076656;28;20040;-77
2022/12/03 00:57:46;;;;;;;5.20;2.60;;;3.00;87.50;;;;;;5094909;28;20490;-76
2022/12/03 01:00:13;;;;;;;3.20;1.70;;;3.00;87.40;;;;;;5095192;28;20043;-76
2022/12/03 01:02:39;;;;;;;4.47;2.17;;;2.90;87.40;;;;;;5094792;28;20444;-77
2022/12/03 01:05:05;;;;;;;4.05;1.80;;;2.90;87.50;;;;;;5094632;28;20051;-77
2022/12/03 01:07:30;;;;;;;5.05;2.13;;;2.90;87.50;;;;;;5076526;28;20047;-77
2022/12/03 01:09:56;;;;;;;3.97;1.80;;;2.90;87.50;;;;;;5059772;28;20032;-77
2022/12/03 01:12:22;;;;;;;4.55;2.13;;;3.00;87.60;;;;;;5094493;28;20043;-77
2022/12/03 01:14:47;;;;;;;5.18;1.92;;;3.00;87.60;;;;;;5094445;28;20072;-76
2022/12/03 01:17:13;;;;;;;3.63;1.98;;;2.90;87.50;;;;;;5076199;28;20529;-76
2022/12/03 01:19:40;;;;;;;3.95;1.77;;;2.90;87.60;;;;;;5094747;28;20036;-76
2022/12/03 01:22:06;;;;;;;3.55;1.88;;;3.00;87.60;;;;;;5094487;28;20039;-76
2022/12/03 01:24:31;;;;;;;2.90;1.55;;;2.90;87.60;;;;;;5094734;28;20062;-76
2022/12/03 01:26:57;;;;;;;4.18;1.88;;;3.00;87.60;;;;;;5076545;28;20546;-76
2022/12/03 01:29:23;;;;;;;4.10;1.80;;;3.00;87.70;;;;;;5094724;28;20044;-76
2022/12/03 01:34:26;;;;;;;4.53;1.60;;;3.00;87.70;;;;;;5094275;28;20044;-76
2022/12/03 01:36:52;;;;;;;5.80;2.00;;;2.90;87.60;;;;;;5076207;28;20387;-77
2022/12/03 01:39:18;;;;;;;3.17;1.67;;;2.90;87.60;;;;;;5094135;28;20047;-77
2022/12/03 01:41:45;;;;;;;3.50;1.55;;;3.00;87.70;;;;;;5093709;28;20102;-77
2022/12/03 01:44:17;;;;;;;4.97;2.08;;;3.00;87.70;;;;;;5076493;28;20083;-77
2022/12/03 01:46:44;;;;;;;4.53;2.22;;;3.00;87.70;;;;;;5076600;28;20127;-76
2022/12/03 01:49:18;;;;;;;4.07;1.98;;;3.00;87.70;;;;;;5094337;28;20117;-76
2022/12/03 01:51:45;;;;;;;5.00;1.90;;;2.90;87.70;;;;;;5094536;28;20075;-77
2022/12/03 01:54:17;;;;;;;3.60;1.80;;;2.90;87.70;;;;;;5093809;28;20517;-77
2022/12/03 01:56:43;;;;;;;3.97;1.88;;;2.90;87.70;;;;;;5075892;28;20032;-77
2022/12/03 01:59:20;;;;;;;3.83;1.92;;;2.90;87.70;;;;;;5076297;28;20071;-77
2022/12/03 02:01:46;;;;;;;3.85;1.80;;;3.00;87.80;;;;;;5075630;28;20040;-77
2022/12/03 02:04:13;;;;;;;5.32;2.30;;;3.00;87.80;;;;;;5073840;28;20037;-77
2022/12/03 02:06:39;;;;;;;4.65;1.73;;;3.00;87.70;;;;;;5075632;28;20459;-78
2022/12/03 02:09:07;;;;;;;3.42;1.65;;;2.90;87.70;;;;;;5093770;28;20067;-77
2022/12/03 02:11:38;;;;;;;4.43;2.03;;;2.90;87.70;;;;;;5075625;28;20036;-77
2022/12/03 02:14:09;;;;;;;4.45;2.20;;;2.90;87.70;;;;;;5093685;28;20119;-77
2022/12/03 02:16:36;;;;;;;5.70;2.03;;;2.90;87.70;;;;;;5076191;28;20055;-76
2022/12/03 02:19:07;;;;;;;4.53;1.85;;;3.00;87.80;;;;;;5093487;28;20044;-77
2022/12/03 02:22:03;;;;;;;5.78;1.88;;;3.00;87.70;;;;;;5075944;28;20059;-76
2022/12/03 02:24:48;;;;;;;4.20;1.90;;;3.00;87.70;;;;;;5093416;28;20051;-77
2022/12/03 02:27:13;;;;;;;4.32;1.70;;;3.00;87.70;;;;;;5059468;28;20056;-77
2022/12/03 02:29:39;;;;;;;4.85;1.80;;;3.00;87.70;;;;;;5093291;28;20219;-77
2022/12/03 02:32:05;;;;;;;3.55;1.77;;;2.90;87.60;;;;;;5093346;28;20036;-77
2022/12/03 02:34:35;;;;;;;4.35;1.77;;;3.00;87.70;;;;;;5058562;28;20084;-76
2022/12/03 02:37:03;;;;;;;3.30;1.63;;;3.00;87.70;;;;;;5093279;28;20040;-76
2022/12/03 02:39:28;;;;;;;4.55;1.90;;;3.00;87.70;;;;;;5093714;28;20039;-76
2022/12/03 02:44:40;;;;;;;4.45;2.00;;;3.00;87.70;;;;;;5093079;28;20040;-77
2022/12/03 02:47:05;;;;;;;3.50;1.60;;;3.00;87.70;;;;;;5074974;28;20401;-76
2022/12/03 02:49:31;;;;;;;3.22;1.60;;;3.10;87.70;;;;;;5074992;28;20083;-76
2022/12/03 02:51:57;;;;;;;4.47;1.80;;;2.90;87.60;;;;;;5091666;28;20036;-77
2022/12/03 02:54:22;;;;;;;4.03;1.85;;;3.10;87.70;;;;;;5074670;28;20458;-76
2022/12/03 02:56:48;;;;;;;4.38;1.73;;;3.00;87.70;;;;;;5092720;28;20044;-77
2022/12/03 02:59:14;;;;;;;5.32;2.00;;;3.00;87.70;;;;;;5092543;28;20043;-77
2022/12/03 03:01:40;;;;;;;4.47;1.98;;;3.00;87.70;;;;;;5093117;28;20040;-77
2022/12/03 03:04:06;;;;;;;5.32;2.08;;;3.00;87.70;;;;;;5092848;28;20109;-77
2022/12/03 03:06:32;;;;;;;4.18;1.80;;;3.00;87.70;;;;;;5092718;28;20052;-77
2022/12/03 03:08:58;;;;;;;4.25;1.70;;;3.00;87.70;;;;;;5074715;28;20127;-76
2022/12/03 03:11:24;;;;;;;3.72;1.70;;;3.00;87.70;;;;;;5074617;28;20131;-77
2022/12/03 03:13:50;;;;;;;3.65;1.80;;;3.00;87.70;;;;;;5074780;28;20485;-77
2022/12/03 03:16:15;;;;;;;4.55;2.03;;;3.00;87.70;;;;;;5073442;28;20044;-76
2022/12/03 03:18:41;;;;;;;4.65;2.38;;;3.10;87.70;;;;;;5093060;28;20127;-76
2022/12/03 03:21:07;;;;;;;3.53;1.88;;;3.00;87.70;;;;;;5057586;28;20100;-77
2022/12/03 03:23:33;;;;;;;4.72;2.17;;;3.00;87.70;;;;;;5092359;28;20089;-76
2022/12/03 03:26:04;;;;;;;3.78;1.75;;;3.10;87.70;;;;;;5093197;28;20474;-77
2022/12/03 03:28:31;;;;;;;4.75;2.15;;;3.00;88.30;;;;;;5058170;28;20457;-77
2022/12/03 03:31:00;;;;;;;4.35;1.88;;;3.00;87.70;;;;;;5092693;28;20040;-77
2022/12/03 03:33:26;;;;;;;4.20;2.03;;;3.00;87.70;;;;;;5074837;28;20036;-77
2022/12/03 03:35:53;;;;;;;4.60;2.10;;;3.00;87.60;;;;;;5074113;28;20393;-77
2022/12/03 03:38:20;;;;;;;4.47;2.13;;;3.00;87.60;;;;;;5074125;28;20040;-77
2022/12/03 03:40:48;;;;;;;4.63;1.95;;;3.00;87.60;;;;;;5092222;28;20040;-77
2022/12/03 03:43:14;;;;;;;5.30;2.40;;;3.00;87.60;;;;;;5092583;28;20040;-77
2022/12/03 03:45:41;;;;;;;3.72;2.00;;;3.00;87.50;;;;;;5092601;28;20050;-77
2022/12/03 03:48:07;;;;;;;5.03;2.20;;;3.00;87.60;;;;;;5074129;28;20143;-78
2022/12/03 03:50:33;;;;;;;5.25;2.40;;;3.20;87.60;;;;;;5074454;28;20060;-78
2022/12/03 03:53:01;;;;;;;6.03;2.95;;;2.90;87.40;;;;;;5092774;28;20039;-77
2022/12/03 03:55:28;;;;;;;4.82;2.22;;;2.90;87.40;;;;;;5074412;28;20046;-77
2022/12/03 03:57:53;;;;;;;4.22;2.33;;;2.80;87.30;;;;;;5092004;28;20060;-77
2022/12/03 04:00:19;;;;;;;4.78;2.33;;;2.90;87.40;;;;;;5074239;28;20493;-77
2022/12/03 04:02:45;;;;;;;5.05;2.25;;;2.80;87.30;;;;;;5091783;28;20048;-77
2022/12/03 04:05:16;;;;;;;4.40;2.22;;;2.90;87.30;;;;;;5092389;28;20040;-77
2022/12/03 04:07:42;;;;;;;4.95;2.40;;;2.90;87.30;;;;;;5092371;28;20426;-77
2022/12/03 04:15:25;;;;;;;4.07;1.83;;;2.90;87.30;;;;;;5091983;28;20044;-77
2022/12/03 04:20:36;;;;;;;5.40;2.55;;;2.80;87.30;;;;;;5091564;28;20036;-77
2022/12/03 04:23:01;;;;;;;5.35;2.60;;;2.80;87.30;;;;;;5074132;28;20154;-77
2022/12/03 04:30:45;;;;;;;4.95;2.15;;;2.80;87.30;;;;;;5091759;28;20393;-77
2022/12/03 04:35:56;;;;;;;5.10;2.10;;;2.80;87.20;;;;;;5091382;28;20131;-78
2022/12/03 04:38:21;;;;;;;4.88;2.10;;;2.70;87.10;;;;;;5056869;28;20458;-77
2022/12/03 04:43:27;;;;;;;4.47;2.13;;;2.80;87.30;;;;;;5075449;28;20414;-77
2022/12/03 04:45:53;;;;;;;5.30;2.30;;;2.80;87.30;;;;;;5091621;28;20052;-77
2022/12/03 04:48:19;;;;;;;3.97;1.88;;;2.70;87.20;;;;;;5056760;28;20410;-77
2022/12/03 04:50:44;;;;;;;5.07;2.20;;;2.70;87.20;;;;;;5073502;28;20040;-78
2022/12/03 04:53:10;;;;;;;3.70;2.20;;;2.70;87.20;;;;;;5073230;28;20040;-76
2022/12/03 04:55:35;;;;;;;4.13;2.22;;;2.60;87.20;;;;;;5091317;28;20552;-76
2022/12/03 04:58:01;;;;;;;5.10;2.22;;;2.70;87.20;;;;;;5056852;28;20044;-77
2022/12/03 05:00:27;;;;;;;4.47;2.33;;;2.70;87.30;;;;;;5091413;28;20043;-76
2022/12/03 05:02:52;;;;;;;4.00;1.92;;;2.70;87.30;;;;;;5091737;28;20397;-76
2022/12/03 05:05:18;;;;;;;4.95;2.00;;;2.70;87.30;;;;;;5091499;28;20054;-77
2022/12/03 05:07:43;;;;;;;5.13;2.40;;;2.70;87.30;;;;;;5091855;28;20085;-77
2022/12/03 05:10:10;;;;;;;3.65;1.88;;;2.70;87.30;;;;;;5091899;28;20039;-76
2022/12/03 05:12:36;;;;;;;5.43;2.33;;;2.70;87.40;;;;;;5073296;28;20375;-77
2022/12/03 05:15:02;;;;;;;4.40;2.00;;;2.70;87.40;;;;;;5073690;28;20042;-77
2022/12/03 05:17:27;;;;;;;4.95;2.40;;;2.70;87.40;;;;;;5076562;28;20483;-76
2022/12/03 05:22:38;;;;;;;5.07;2.05;;;2.60;87.30;;;;;;5079586;28;20048;-77
2022/12/03 05:25:05;;;;;;;4.07;1.80;;;2.70;87.40;;;;;;5076770;28;20454;-76
2022/12/03 05:27:30;;;;;;;2.97;1.40;;;2.70;87.40;;;;;;5095174;28;20079;-77
2022/12/03 05:29:56;;;;;;;3.28;1.52;;;2.70;87.40;;;;;;5076399;28;20040;-76
2022/12/03 05:32:22;;;;;;;3.75;1.85;;;2.70;87.40;;;;;;5060007;28;20036;-76
2022/12/03 05:34:47;;;;;;;3.83;1.80;;;2.70;87.40;;;;;;5095244;28;20486;-77
2022/12/03 05:37:13;;;;;;;3.78;1.85;;;2.70;87.40;;;;;;5094582;28;20143;-76
2022/12/03 05:39:39;;;;;;;4.20;1.77;;;2.70;87.40;;;;;;5094761;28;20105;-76
2022/12/03 05:44:42;;;;;;;3.75;1.90;;;2.60;87.40;;;;;;5063264;28;20098;-77
2022/12/03 05:47:08;;;;;;;4.93;2.05;;;2.60;88.00;;;;;;5095088;28;20421;-77
2022/12/03 05:49:33;;;;;;;4.50;2.10;;;2.70;87.70;;;;;;5094329;28;20548;-76
2022/12/03 05:51:59;;;;;;;3.53;1.83;;;2.60;87.50;;;;;;5094445;28;20050;-77
2022/12/03 05:54:25;;;;;;;3.67;1.85;;;2.70;87.50;;;;;;5094435;28;20094;-77
2022/12/03 05:56:50;;;;;;;4.20;2.25;;;2.70;87.50;;;;;;5094318;28;20131;-76
2022/12/03 05:59:16;;;;;;;4.43;1.90;;;2.70;87.50;;;;;;5094140;28;20055;-77
2022/12/03 06:01:41;;;;;;;4.10;2.08;;;2.70;87.50;;;;;;5093927;28;20379;-78
2022/12/03 06:04:07;;;;;;;4.50;1.83;;;2.70;87.50;;;;;;5094039;28;20047;-76
2022/12/03 06:06:32;;;;;;;4.47;1.92;;;2.70;87.50;;;;;;5094175;28;20043;-76
2022/12/03 06:08:58;;;;;;;3.58;1.90;;;2.70;88.10;;;;;;5094160;28;20059;-76
2022/12/03 06:11:24;;;;;;;3.67;1.92;;;2.60;87.50;;;;;;5094185;28;20099;-76
2022/12/03 06:13:49;;;;;;;3.90;1.50;;;2.70;87.50;;;;;;5094125;28;20550;-76
2022/12/03 06:16:15;;;;;;;3.70;1.67;;;2.70;87.50;;;;;;5094146;28;20032;-76
2022/12/03 06:18:41;;;;;;;4.18;1.63;;;2.70;87.50;;;;;;5076066;28;20094;-76
2022/12/03 06:21:06;;;;;;;4.35;2.10;;;2.70;87.50;;;;;;5093933;28;20043;-77
2022/12/03 06:23:32;;;;;;;5.43;2.00;;;2.70;87.50;;;;;;5075662;28;20081;-77
2022/12/03 06:25:57;;;;;;;3.75;1.98;;;2.60;87.50;;;;;;5093774;28;20043;-76
2022/12/03 06:28:23;;;;;;;3.20;1.70;;;2.60;87.50;;;;;;5075483;28;20040;-77
2022/12/03 06:30:48;;;;;;;4.50;1.83;;;2.60;87.60;;;;;;5094192;28;20043;-76
2022/12/03 06:33:14;;;;;;;4.95;2.00;;;2.60;87.60;;;;;;5093604;28;20058;-76
2022/12/03 06:35:40;;;;;;;5.35;2.15;;;2.60;87.50;;;;;;5076049;28;20032;-76
2022/12/03 06:38:05;;;;;;;3.83;1.98;;;2.60;87.60;;;;;;5093627;28;20036;-77
2022/12/03 06:40:31;;;;;;;5.18;2.30;;;2.60;87.60;;;;;;5075903;28;20395;-76
2022/12/03 06:42:57;;;;;;;4.03;1.70;;;2.60;87.60;;;;;;5093897;28;20051;-76
2022/12/03 06:45:22;;;;;;;3.55;1.88;;;2.60;87.70;;;;;;5093830;28;20596;-76
2022/12/03 06:47:48;;;;;;;4.15;1.60;;;2.70;87.80;;;;;;5075299;28;20138;-76
2022/12/03 06:50:14;;;;;;;4.22;1.73;;;2.60;87.60;;;;;;5093913;28;20040;-76
2022/12/03 06:52:39;;;;;;;4.63;2.30;;;2.60;87.60;;;;;;5093417;28;20032;-77
2022/12/03 06:55:05;;;;;;;3.95;1.92;;;2.60;87.60;;;;;;5093985;28;20492;-78
2022/12/03 06:57:31;;;;;;;3.25;1.75;;;2.60;87.60;;;;;;5093245;28;20047;-77
2022/12/03 06:59:57;;;;;;;4.00;1.65;;;2.60;87.70;;;;;;5093893;28;20129;-76
2022/12/03 07:02:22;;;;;;;2.33;1.17;;;2.60;87.70;;;;;;5093301;28;20029;-76
2022/12/03 07:04:48;;;;;;;3.80;1.75;;;2.60;87.70;;;;;;5093352;28;20043;-76
2022/12/03 07:07:14;;;;;;;3.33;1.70;;;2.60;87.70;;;;;;5075807;28;20071;-77
2022/12/03 07:09:39;;;;;;;4.00;1.65;;;2.60;87.80;;;;;;5093615;28;20485;-77
2022/12/03 07:12:05;;;;;;;2.97;1.35;;;2.60;87.80;;;;;;5058484;28;20047;-77
2022/12/03 07:14:30;;;;;;;4.07;1.60;;;2.60;87.80;;;;;;5093124;28;20047;-76
2022/12/03 07:16:56;;;;;;;3.00;1.58;;;2.60;87.80;;;;;;5074832;28;20093;-77
2022/12/03 07:19:22;;;;;;;4.38;1.52;;;2.60;87.70;;;;;;5075466;28;20047;-77
2022/12/03 07:21:47;;;;;;;4.88;1.63;;;2.60;87.80;;;;;;5093092;28;20066;-77
2022/12/03 07:24:13;;;;;;;3.78;1.40;;;2.60;87.80;;;;;;5092901;28;20039;-77
2022/12/03 07:26:39;;;;;;;4.85;1.95;;;2.60;87.80;;;;;;5092786;28;20440;-76
2022/12/03 07:29:04;;;;;;;3.92;1.75;;;2.60;87.80;;;;;;5092770;28;20040;-76
2022/12/03 07:31:30;;;;;;;3.42;1.70;;;2.70;87.90;;;;;;5092849;28;20032;-76
2022/12/03 07:33:56;;;;;;;4.15;1.85;;;2.70;87.90;;;;;;5093246;28;20044;-78
2022/12/03 07:36:21;;;;;;;6.05;2.70;;;2.60;87.80;;;;;;5074426;28;20093;-77
2022/12/03 07:38:47;;;;;;;5.35;2.25;;;2.60;87.70;;;;;;5092119;28;20416;-77
2022/12/03 07:41:13;;;;;;;5.20;2.40;;;2.60;87.80;;;;;;5092909;28;20036;-77
2022/12/03 07:43:39;;;;;;;4.90;2.28;;;2.50;87.80;;;;;;5057697;28;20094;-78
2022/12/03 07:46:04;;;;;;;6.05;2.38;;;2.50;87.80;;;;;;5092823;28;20062;-76
2022/12/03 07:48:30;;;;;;;6.90;3.05;;;2.50;87.70;;;;;;5074477;28;20047;-77
2022/12/03 07:50:56;;;;;;;6.93;2.97;;;2.50;87.80;;;;;;5092818;28;20048;-77
2022/12/03 07:53:21;;;;;;;10.02;3.60;;;2.60;87.80;;;;;;5058137;28;20059;-78
2022/12/03 07:55:47;;;;;;;7.40;3.10;;;2.60;87.80;;;;;;5092877;28;20043;-77
2022/12/03 07:58:12;;;;;;;6.45;2.78;;;2.40;87.60;;;;;;5074308;28;20405;-77
2022/12/03 08:00:38;;;;;;;7.38;3.15;;;2.50;87.70;;;;;;5074641;28;20039;-77
2022/12/03 08:03:03;;;;;;;6.18;2.88;;;2.50;87.70;;;;;;5074384;28;20047;-76
2022/12/03 08:05:29;;;;;;;6.80;2.85;;;2.50;87.70;;;;;;5092627;28;20040;-77
2022/12/03 08:07:55;;;;;;;5.45;2.50;;;2.50;87.70;;;;;;5057335;28;20044;-77
2022/12/03 08:10:21;;;;;;;5.07;2.50;;;2.50;87.70;;;;;;5074691;28;20044;-78
2022/12/03 08:12:47;;;;;;;5.85;2.80;;;2.40;87.60;;;;;;5092241;28;20078;-77
2022/12/03 08:15:18;;;;;;;6.18;2.50;;;2.50;87.60;;;;;;5074262;28;20032;-77
2022/12/03 08:17:50;;;;;;;5.70;2.42;;;2.50;88.30;;;;;;5092743;28;20131;-76
2022/12/03 08:20:20;;;;;;;5.55;2.22;;;2.50;87.70;;;;;;5074122;28;20466;-77
2022/12/03 08:22:48;;;;;;;5.00;2.40;;;2.50;87.80;;;;;;5092083;28;20032;-76
2022/12/03 08:25:31;;;;;;;4.75;2.38;;;2.50;87.70;;;;;;5092084;28;20079;-76
2022/12/03 08:28:19;;;;;;;7.20;2.75;;;2.50;87.70;;;;;;5091294;28;20055;-76
2022/12/03 08:30:57;;;;;;;6.88;2.92;;;2.50;87.70;;;;;;5091859;28;20988;-76
2022/12/03 08:33:29;;;;;;;5.60;2.63;;;2.50;87.70;;;;;;5058955;28;20035;-77
2022/12/03 08:35:55;;;;;;;5.60;2.50;;;2.50;87.70;;;;;;5073679;28;20063;-76
2022/12/03 08:38:23;;;;;;;6.40;2.35;;;2.60;87.80;;;;;;5057107;28;20040;-77
2022/12/03 08:40:51;;;;;;;6.95;2.45;;;2.50;87.70;;;;;;5091855;28;20047;-76
2022/12/03 08:43:23;;;;;;;5.93;2.30;;;2.50;87.70;;;;;;5092051;28;20044;-76
2022/12/03 08:45:51;;;;;;;;;;;2.50;87.70;;;;;;5092140;28;20089;-77
2022/12/03 08:48:26;;;;;;;4.45;2.17;;;2.60;87.80;;;;;;5091457;28;19924;-77
2022/12/03 08:50:55;;;;;;;3.30;1.70;;;2.50;87.70;;;;;;5093463;28;20043;-76
2022/12/03 08:53:28;;;;;;;4.78;2.40;;;2.60;87.70;;;;;;5095396;28;20032;-77
2022/12/03 08:55:57;;;;;;;4.28;2.08;;;2.60;87.70;;;;;;5077187;28;20398;-76
2022/12/03 08:58:35;;;;;;;4.13;2.00;;;2.60;87.70;;;;;;5094997;28;20411;-76
2022/12/03 09:01:30;;;;;;;5.85;2.17;;;2.60;87.70;;;;;;5095500;28;20040;-76
2022/12/03 09:04:04;;;;;;;4.57;2.10;;;2.60;87.70;;;;;;5081829;28;20530;-77
2022/12/03 09:06:29;;;;;;;3.45;1.77;;;2.60;87.80;;;;;;5077806;28;20052;-76
2022/12/03 09:08:55;;;;;;;3.15;1.55;;;2.60;87.70;;;;;;5060101;28;20051;-77
2022/12/03 09:11:20;;;;;;;3.65;1.70;;;2.50;87.60;;;;;;5095094;28;20534;-77
2022/12/03 09:13:46;;;;;;;4.55;1.80;;;2.60;87.60;;;;;;5094938;28;20040;-76
2022/12/03 09:16:12;;;;;;;4.60;1.77;;;2.60;87.70;;;;;;5076882;28;20036;-77
2022/12/03 09:18:38;;;;;;;4.80;1.92;;;2.70;87.80;;;;;;5094663;28;20067;-76
2022/12/03 09:21:04;;;;;;;4.80;2.08;;;2.50;87.70;;;;;;5076809;28;20181;-77
2022/12/03 09:23:29;;;;;;;4.30;1.88;;;2.50;87.70;;;;;;5076666;28;20075;-76
2022/12/03 09:25:55;;;;;;;5.65;2.20;;;2.50;87.70;;;;;;5074518;28;20048;-76
2022/12/03 09:28:21;;;;;;;4.20;1.80;;;2.60;87.80;;;;;;5094964;28;20032;-77
2022/12/03 09:30:46;;;;;;;3.88;1.55;;;2.60;87.80;;;;;;5094797;28;20085;-77
2022/12/03 09:33:12;;;;;;;4.95;2.35;;;2.60;87.80;;;;;;5059920;28;20036;-77
2022/12/03 09:35:38;;;;;;;4.20;1.90;;;2.60;87.80;;;;;;5094923;28;20044;-77
2022/12/03 09:38:04;;;;;;;3.97;1.83;;;2.50;87.70;;;;;;5076764;28;20132;-77
2022/12/03 09:40:29;;;;;;;5.03;1.90;;;2.60;87.80;;;;;;5076350;28;20440;-76
2022/12/03 09:42:57;;;;;;;5.55;2.17;;;2.60;87.80;;;;;;5076943;28;20044;-76
2022/12/03 09:45:23;;;;;;;4.13;1.85;;;2.60;87.80;;;;;;5095019;28;20130;-76
2022/12/03 09:47:49;;;;;;;4.45;1.80;;;2.60;87.80;;;;;;5076404;28;20127;-77
2022/12/03 09:50:21;;;;;;;2.78;1.60;;;2.60;87.80;;;;;;5095061;28;20038;-76
2022/12/03 09:52:48;;;;;;;4.18;1.75;;;2.60;87.90;;;;;;5076259;28;20051;-77
2022/12/03 09:55:19;;;;;;;4.65;1.92;;;2.50;87.90;;;;;;5094427;28;20040;-76
2022/12/03 09:57:45;;;;;;;3.40;1.63;;;2.60;87.90;;;;;;5094331;28;20043;-76
2022/12/03 10:00:18;;;;;;;4.57;1.92;;;2.60;87.90;;;;;;5094774;28;20040;-76
2022/12/03 10:02:45;;;;;;;4.53;1.60;;;2.60;87.90;;;;;;5092322;28;20040;-77
2022/12/03 10:05:13;;;;;;;5.20;1.63;;;2.60;87.90;;;;;;5076499;28;20032;-77
2022/12/03 10:07:39;;;;;;;3.50;1.65;;;2.70;88.00;;;;;;5094104;28;20089;-76
2022/12/03 10:10:07;;;;;;;5.28;2.00;;;2.60;87.90;;;;;;5094594;28;20064;-76
2022/12/03 10:12:33;;;;;;;4.80;1.58;;;2.50;87.90;;;;;;5076245;28;20071;-75
2022/12/03 10:14:59;;;;;;;3.70;1.63;;;2.50;87.90;;;;;;5093840;28;20036;-75
2022/12/03 10:17:27;;;;;;;5.03;2.00;;;2.50;88.00;;;;;;5094341;28;20040;-75
2022/12/03 10:19:53;;;;;;;4.43;1.70;;;2.50;88.10;;;;;;5093796;28;20549;-75
2022/12/03 10:22:19;;;;;;;3.42;1.60;;;2.50;87.90;;;;;;5075716;28;20127;-74
2022/12/03 10:24:44;;;;;;;5.35;1.70;;;2.50;88.50;;;;;;5093853;28;20044;-75
2022/12/03 10:27:23;;;;;;;4.85;1.80;;;2.50;87.90;;;;;;5094040;28;20032;-75
2022/12/03 10:29:58;;;;;;;6.88;2.67;;;2.40;87.80;;;;;;5092068;28;20162;-75
2022/12/03 10:32:26;;;;;;;4.55;2.10;;;2.40;87.90;;;;;;5074513;28;20085;-75
2022/12/03 10:35:22;;;;;;;4.72;2.20;;;2.40;88.00;;;;;;5093510;28;20045;-76
2022/12/03 10:38:00;;;;;;;5.68;2.38;;;2.40;88.00;;;;;;5073429;28;20048;-75
2022/12/03 10:40:36;;;;;;;7.10;2.55;;;2.30;88.00;;;;;;5093078;28;20032;-75
2022/12/03 10:43:22;;;;;;;6.13;2.30;;;2.20;88.10;;;;;;5075484;28;20080;-76
2022/12/03 10:45:50;;;;;;;5.90;2.05;;;2.30;88.10;;;;;;5093931;28;20390;-75
2022/12/03 10:48:24;;;;;;;5.93;2.53;;;2.30;88.10;;;;;;5093718;28;20051;-75
2022/12/03 10:50:53;;;;;;;4.40;2.03;;;2.30;88.10;;;;;;5075180;28;20036;-75
2022/12/03 10:53:21;;;;;;;4.20;1.85;;;2.20;88.20;;;;;;5091648;28;20067;-74
2022/12/03 10:55:50;;;;;;;4.63;1.83;;;2.30;88.30;;;;;;5093688;28;20044;-74
2022/12/03 10:58:22;;;;;;;4.25;2.05;;;2.40;88.30;;;;;;5093390;28;20478;-75
2022/12/03 11:00:50;;;;;;;4.03;1.90;;;2.30;88.20;;;;;;5093519;28;20122;-75
2022/12/03 11:03:25;;;;;;;6.50;2.42;;;2.30;88.10;;;;;;5093364;28;20066;-74
2022/12/03 11:05:53;;;;;;;4.93;2.13;;;2.30;88.10;;;;;;5093440;28;20474;-75
2022/12/03 11:08:21;;;;;;;6.63;2.45;;;2.20;88.10;;;;;;5058335;28;20067;-75
2022/12/03 11:10:59;;;;;;;3.80;1.63;;;2.40;88.20;;;;;;5093031;28;20422;-75
2022/12/03 11:13:42;;;;;;;6.60;2.10;;;2.30;88.10;;;;;;5090781;28;20115;-75
2022/12/03 11:16:07;;;;;;;5.78;2.00;;;2.30;88.20;;;;;;5092979;28;20040;-75
2022/12/03 11:18:56;;;;;;;6.18;2.00;;;2.40;88.30;;;;;;5092953;28;20028;-74
2022/12/03 11:21:22;;;;;;;4.32;1.77;;;2.20;88.20;;;;;;5078480;28;20481;-74
2022/12/03 11:24:02;;;;;;;5.60;2.08;;;2.30;88.30;;;;;;5074744;28;20047;-74
2022/12/03 11:27:07;;;;;;;4.47;1.70;;;2.20;88.30;;;;;;5093008;28;20068;-75
2022/12/03 11:30:01;;;;;;;3.10;1.58;;;2.20;88.40;;;;;;5067167;28;20040;-75
2022/12/03 11:33:06;;;;;;;4.20;1.90;;;2.20;88.30;;;;;;5091929;28;20354;-75
2022/12/03 11:35:55;;;;;;;4.55;2.00;;;2.20;88.30;;;;;;5066597;28;20119;-75
2022/12/03 11:38:44;;;;;;;4.60;1.80;;;2.20;88.30;;;;;;5092554;28;20071;-74
2022/12/03 11:41:14;;;;;;;3.65;1.67;;;2.10;88.20;;;;;;5092614;28;20559;-74
2022/12/03 11:43:57;;;;;;;3.35;1.45;;;2.20;88.30;;;;;;5091157;28;20490;-74
2022/12/03 11:46:43;;;;;;;4.15;1.50;;;2.20;88.40;;;;;;5092955;28;20101;-74
2022/12/03 11:49:24;;;;;;;4.35;1.98;;;2.20;88.40;;;;;;5090515;28;20073;-74
2022/12/03 11:51:50;;;;;;;2.67;1.30;;;2.30;88.40;;;;;;5074373;28;20561;-75
2022/12/03 11:54:20;;;;;;;3.83;1.52;;;2.30;88.30;;;;;;5092923;28;20097;-75
2022/12/03 11:56:54;;;;;;;3.60;1.20;;;2.20;88.20;;;;;;5057694;28;20474;-79
2022/12/03 11:59:21;;;;;;;4.15;1.50;;;2.30;88.30;;;;;;5029934;28;20049;-78
2022/12/03 12:01:47;;;;;;;4.60;1.65;;;2.30;88.30;;;;;;5030145;28;20045;-75
2022/12/03 12:04:34;;;;;;;4.03;1.70;;;2.40;88.40;;;;;;5030454;28;20045;-77
2022/12/03 12:07:00;;;;;;;4.60;1.73;;;2.30;88.30;;;;;;5030306;28;20055;-76
2022/12/03 12:09:55;;;;;;;3.30;1.25;;;2.30;88.30;;;;;;5030509;28;20038;-76
2022/12/03 12:12:39;;;;;;;3.83;1.73;;;2.30;88.40;;;;;;5030070;28;20057;-76
2022/12/03 12:15:41;;;;;;;4.45;1.77;;;2.20;88.40;;;;;;5013453;28;20504;-76
2022/12/03 12:18:40;;;;;;;3.78;1.50;;;2.20;88.40;;;;;;5029881;28;20061;-75
2022/12/03 12:21:41;;;;;;;3.65;1.65;;;2.20;88.40;;;;;;5029823;28;20112;-75
2022/12/03 12:24:30;;;;;;;3.47;1.60;;;2.20;88.40;;;;;;5030215;28;20439;-76
2022/12/03 12:26:57;;;;;;;4.80;2.05;;;2.20;88.40;;;;;;5033842;28;20128;-75
2022/12/03 12:29:23;;;;;;;5.43;1.83;;;2.20;88.40;;;;;;5042722;28;20059;-76
2022/12/03 12:31:49;;;;;;;3.20;1.55;;;2.20;88.40;;;;;;5077366;28;20117;-76
2022/12/03 12:34:14;;;;;;;5.03;2.15;;;2.20;88.40;;;;;;5095322;28;20047;-75
2022/12/03 12:36:41;;;;;;;5.57;2.30;;;2.20;88.50;;;;;;5077212;28;20043;-75
2022/12/03 12:39:12;;;;;;;5.28;2.25;;;2.20;88.60;;;;;;5095380;28;20071;-76
2022/12/03 12:41:39;;;;;;;5.30;1.98;;;2.20;88.60;;;;;;5077227;28;20135;-75
2022/12/03 12:44:13;;;;;;;5.00;1.83;;;2.30;88.50;;;;;;5095281;28;20052;-75
2022/12/03 12:46:40;;;;;;;5.50;2.10;;;2.30;88.50;;;;;;5077581;28;20051;-75
2022/12/03 12:49:12;;;;;;;5.82;2.00;;;2.20;88.40;;;;;;5095310;28;20044;-76
2022/12/03 12:51:46;;;;;;;;;;;2.30;88.50;;;;;;5095548;28;20089;-75
2022/12/03 12:54:14;;;;;;;5.40;1.90;;;2.20;88.40;;;;;;5095101;28;19918;-76
2022/12/03 12:56:42;;;;;;;4.10;1.80;;;2.20;88.40;;;;;;5095224;28;20055;-75
2022/12/03 12:59:15;;;;;;;5.82;2.22;;;2.20;88.40;;;;;;5095091;28;20079;-75
2022/12/03 13:01:43;;;;;;;4.25;1.90;;;2.20;88.50;;;;;;5076841;28;20585;-75
2022/12/03 13:04:12;;;;;;;6.05;2.10;;;2.20;88.60;;;;;;5094989;28;20070;-75
2022/12/03 13:06:38;;;;;;;5.32;2.28;;;2.20;88.60;;;;;;5076755;28;20048;-75
2022/12/03 13:09:13;;;;;;;4.20;1.73;;;2.20;88.60;;;;;;5075896;28;20087;-75
2022/12/03 13:11:44;;;;;;;4.80;2.20;;;2.10;88.70;;;;;;5094015;28;20032;-75
2022/12/03 13:14:28;;;;;;;4.82;2.05;;;2.10;88.70;;;;;;5094531;28;20035;-76
2022/12/03 13:16:55;;;;;;;4.57;1.98;;;2.10;89.40;;;;;;5094836;28;20040;-75
2022/12/03 13:19:26;;;;;;;5.68;2.15;;;2.10;88.70;;;;;;5076822;28;20124;-75
2022/12/03 13:21:54;;;;;;;3.95;1.83;;;2.10;88.70;;;;;;5095346;28;20480;-75
2022/12/03 13:24:38;;;;;;;4.30;1.92;;;2.10;88.70;;;;;;5077094;28;20114;-75
2022/12/03 13:27:28;;;;;;;7.40;2.45;;;2.10;88.70;;;;;;5094977;28;20043;-75
2022/12/03 13:29:59;;;;;;;5.28;2.47;;;2.20;88.70;;;;;;5076774;28;20189;-75
2022/12/03 13:32:30;;;;;;;5.70;2.60;;;2.10;88.80;;;;;;5094721;28;20064;-75
2022/12/03 13:35:06;;;;;;;5.90;2.60;;;2.00;88.70;;;;;;5095218;28;20152;-75
2022/12/03 13:37:32;;;;;;;5.03;2.13;;;2.00;88.90;;;;;;5094029;28;20040;-75